Time;durP1;ratioP1;P1;durP2;ratioP2;P2;SDS_P1;SDS_P2;PMS_P1;PMS_P2;Temp;Humidity;BMP_temperature;BMP_pressure;BME280_temperature;BME280_humidity;BME280_pressure;Samples;Min_cycle;Max_cycle;Signal;HPM_P1;HPM_P2
2023/03/12 00:00:48;;;;;;;9.48;3.85;;;-0.10;99.90;;;;;;5055792;28;20075;-74
2023/03/12 00:03:14;;;;;;;10.00;3.67;;;-0.10;99.90;;;;;;5054416;28;20041;-75
2023/03/12 00:05:41;;;;;;;9.93;3.90;;;0.10;99.90;;;;;;5058225;28;20055;-74
2023/03/12 00:08:08;;;;;;;9.90;4.60;;;-0.10;99.90;;;;;;5050209;28;20116;-75
2023/03/12 00:10:34;;;;;;;9.38;4.45;;;0.10;99.90;;;;;;5053713;28;20044;-74
2023/03/12 00:13:00;;;;;;;10.98;4.60;;;-0.10;99.90;;;;;;5052875;28;20052;-75
2023/03/12 00:15:27;;;;;;;14.15;4.70;;;-0.20;99.90;;;;;;5031008;28;20068;-75
2023/03/12 00:17:52;;;;;;;13.43;4.97;;;-0.20;99.90;;;;;;5054518;28;20535;-75
2023/03/12 00:20:19;;;;;;;13.23;4.68;;;0.30;99.90;;;;;;5063181;28;20040;-75
2023/03/12 00:22:45;;;;;;;13.85;4.80;;;-0.20;99.90;;;;;;5056408;28;20066;-75
2023/03/12 00:25:13;;;;;;;14.82;4.55;;;-0.20;99.90;;;;;;5057016;28;20032;-75
2023/03/12 00:27:39;;;;;;;15.00;5.00;;;-0.20;99.90;;;;;;5056327;28;20534;-75
2023/03/12 00:30:06;;;;;;;10.40;4.13;;;-0.20;99.90;;;;;;5041077;28;20055;-75
2023/03/12 00:32:32;;;;;;;12.30;4.25;;;-0.20;99.90;;;;;;5059899;28;20707;-75
2023/03/12 00:34:58;;;;;;;9.35;4.40;;;0.40;99.90;;;;;;5061949;28;20442;-75
2023/03/12 00:37:24;;;;;;;11.25;4.47;;;-0.30;99.90;;;;;;5059181;28;20127;-75
2023/03/12 00:39:50;;;;;;;12.32;4.18;;;-0.30;99.90;;;;;;5056428;28;20559;-75
2023/03/12 00:42:16;;;;;;;13.40;4.78;;;-0.30;99.90;;;;;;5060434;28;20109;-76
2023/03/12 00:44:43;;;;;;;10.13;4.00;;;-0.30;99.90;;;;;;5057901;28;20059;-75
2023/03/12 00:47:09;;;;;;;11.02;4.15;;;-0.30;99.90;;;;;;5060082;28;20044;-75
2023/03/12 00:49:35;;;;;;;10.90;4.07;;;-0.30;99.90;;;;;;5060946;28;20040;-75
2023/03/12 00:52:01;;;;;;;10.07;3.72;;;-0.30;99.90;;;;;;5041317;28;20649;-75
2023/03/12 00:54:27;;;;;;;9.38;4.15;;;-0.30;99.90;;;;;;5057837;28;20100;-74
2023/03/12 00:56:52;;;;;;;10.60;3.60;;;-0.30;99.90;;;;;;5060682;28;20044;-75
2023/03/12 00:59:18;;;;;;;9.57;3.97;;;-0.40;99.90;;;;;;5062184;28;20040;-74
2023/03/12 01:01:44;;;;;;;12.02;3.60;;;-0.40;99.90;;;;;;5061327;28;20055;-74
2023/03/12 01:04:10;;;;;;;8.10;4.15;;;-0.40;99.90;;;;;;5064292;28;20048;-75
2023/03/12 01:06:36;;;;;;;8.57;3.97;;;-0.40;99.90;;;;;;5059466;28;20059;-74
2023/03/12 01:09:04;;;;;;;11.82;3.90;;;-0.40;99.90;;;;;;5046387;28;20052;-75
2023/03/12 01:11:31;;;;;;;7.97;3.80;;;-0.40;99.90;;;;;;5044555;28;20494;-75
2023/03/12 01:13:59;;;;;;;8.88;4.32;;;-0.40;99.90;;;;;;5043817;28;20125;-74
2023/03/12 01:16:29;;;;;;;7.97;3.83;;;-0.40;99.90;;;;;;5062055;28;20068;-74
2023/03/12 01:18:59;;;;;;;10.40;4.40;;;-0.40;99.90;;;;;;5061267;28;20072;-75
2023/03/12 01:21:27;;;;;;;7.72;4.00;;;-0.40;99.90;;;;;;5043616;28;20462;-75
2023/03/12 01:23:53;;;;;;;8.32;3.72;;;0.00;99.90;;;;;;5060613;28;20125;-76
2023/03/12 01:26:19;;;;;;;10.60;4.18;;;-0.30;99.90;;;;;;5063890;28;20055;-75
2023/03/12 01:28:44;;;;;;;11.43;3.92;;;-0.20;99.90;;;;;;5063018;28;20049;-75
2023/03/12 01:31:14;;;;;;;12.32;4.75;;;-0.50;99.90;;;;;;5062780;28;20048;-75
2023/03/12 01:33:40;;;;;;;13.05;4.10;;;-0.20;99.90;;;;;;5042575;28;20460;-75
2023/03/12 01:36:24;;;;;;;8.45;3.88;;;-0.50;99.90;;;;;;5062171;28;20041;-76
2023/03/12 01:38:51;;;;;;;8.98;4.03;;;-0.50;99.90;;;;;;5045617;28;20063;-75
2023/03/12 01:41:18;;;;;;;10.82;4.05;;;-0.50;99.90;;;;;;5045686;28;20452;-75
2023/03/12 01:43:44;;;;;;;9.15;3.70;;;-0.50;99.90;;;;;;5062404;28;20041;-76
2023/03/12 01:46:33;;;;;;;10.27;3.67;;;-0.50;99.90;;;;;;5044773;28;20040;-75
2023/03/12 01:49:08;;;;;;;13.10;4.03;;;-0.50;99.90;;;;;;5059336;28;20086;-73
2023/03/12 01:52:00;;;;;;;11.13;4.18;;;-0.50;99.90;;;;;;5060198;28;20701;-73
2023/03/12 01:54:34;;;;;;;10.07;4.10;;;-0.50;99.90;;;;;;5043775;28;20844;-74
2023/03/12 01:57:03;;;;;;;10.65;3.70;;;-0.50;99.90;;;;;;5060176;28;20406;-75
2023/03/12 01:59:39;;;;;;;10.85;3.92;;;-0.40;99.90;;;;;;5062001;28;20117;-75
2023/03/12 02:02:05;;;;;;;11.48;4.60;;;-0.40;99.90;;;;;;5061967;28;20040;-74
2023/03/12 02:04:32;;;;;;;8.52;3.72;;;-0.50;99.90;;;;;;5061107;28;20759;-74
2023/03/12 02:07:08;;;;;;;9.00;3.85;;;-0.40;99.90;;;;;;5063304;28;20040;-74
2023/03/12 02:09:40;;;;;;;8.82;3.65;;;-0.10;99.90;;;;;;5062878;28;20075;-74
2023/03/12 02:12:07;;;;;;;8.80;3.65;;;-0.40;99.90;;;;;;5059071;28;20059;-74
2023/03/12 02:14:33;;;;;;;9.82;4.47;;;-0.40;99.90;;;;;;5062213;28;20044;-74
2023/03/12 02:16:59;;;;;;;9.20;4.13;;;-0.40;99.90;;;;;;5059984;28;20040;-75
2023/03/12 02:19:44;;;;;;;11.52;4.20;;;-0.40;99.90;;;;;;5059626;28;20068;-74
2023/03/12 02:22:10;;;;;;;10.00;4.05;;;-0.30;99.90;;;;;;5060579;28;20068;-75
2023/03/12 02:24:46;;;;;;;12.25;4.00;;;-0.30;99.90;;;;;;5045124;28;20854;-75
2023/03/12 02:27:12;;;;;;;13.32;4.20;;;-0.30;99.90;;;;;;5055936;28;20055;-76
2023/03/12 02:29:40;;;;;;;10.57;3.85;;;-0.30;99.90;;;;;;5060222;28;20576;-75
2023/03/12 02:32:08;;;;;;;10.75;4.82;;;-0.30;99.90;;;;;;5060603;28;20040;-74
2023/03/12 02:34:34;;;;;;;11.00;4.07;;;-0.30;99.90;;;;;;5040665;28;20062;-75
2023/03/12 02:37:00;;;;;;;7.88;3.70;;;-0.30;99.90;;;;;;5059905;28;20080;-75
2023/03/12 02:39:27;;;;;;;10.90;3.92;;;-0.30;99.90;;;;;;5061300;28;20083;-75
2023/03/12 02:41:58;;;;;;;11.52;4.30;;;-0.30;99.90;;;;;;5060664;28;20086;-75
2023/03/12 02:44:30;;;;;;;10.13;4.18;;;-0.20;99.90;;;;;;5062608;28;20046;-75
2023/03/12 02:46:57;;;;;;;11.02;4.45;;;0.20;99.90;;;;;;5061811;28;20044;-75
2023/03/12 02:49:26;;;;;;;9.48;4.32;;;0.30;99.90;;;;;;5043636;28;20118;-75
2023/03/12 02:51:53;;;;;;;11.32;4.38;;;-0.20;99.90;;;;;;5061123;28;20409;-74
2023/03/12 02:54:20;;;;;;;10.07;4.40;;;-0.20;99.90;;;;;;5062440;28;20537;-75
2023/03/12 02:56:45;;;;;;;8.90;4.22;;;-0.20;99.90;;;;;;5061133;28;20402;-75
2023/03/12 02:59:13;;;;;;;10.63;4.28;;;-0.20;99.90;;;;;;5060519;28;20040;-75
2023/03/12 03:01:39;;;;;;;10.93;4.55;;;-0.20;99.90;;;;;;5088473;28;20044;-74
2023/03/12 03:04:07;;;;;;;13.13;3.83;;;0.00;99.90;;;;;;5060153;28;20051;-75
2023/03/12 03:06:34;;;;;;;11.18;4.50;;;-0.20;99.90;;;;;;5061566;28;20139;-75
2023/03/12 03:09:00;;;;;;;14.27;4.15;;;-0.20;99.90;;;;;;5062059;28;20040;-76
2023/03/12 03:11:26;;;;;;;11.85;4.28;;;-0.20;99.90;;;;;;5062036;28;20044;-76
2023/03/12 03:13:53;;;;;;;12.35;4.65;;;-0.10;99.90;;;;;;5059704;28;20071;-73
2023/03/12 03:16:19;;;;;;;12.30;4.30;;;-0.10;99.90;;;;;;5062293;28;20072;-75
2023/03/12 03:18:44;;;;;;;12.48;4.25;;;-0.10;99.90;;;;;;5061515;28;20055;-75
2023/03/12 03:21:15;;;;;;;11.73;4.15;;;-0.10;99.90;;;;;;5061312;28;20040;-75
2023/03/12 03:23:42;;;;;;;11.48;3.75;;;-0.10;99.90;;;;;;5044374;28;20080;-75
2023/03/12 03:26:08;;;;;;;8.18;3.45;;;-0.10;99.90;;;;;;5062512;28;20045;-74
2023/03/12 03:28:33;;;;;;;8.50;3.40;;;0.00;99.90;;;;;;5059527;28;20043;-75
2023/03/12 03:31:00;;;;;;;10.82;3.92;;;0.00;99.90;;;;;;5062015;28;20036;-74
2023/03/12 03:33:31;;;;;;;10.60;4.05;;;0.00;99.90;;;;;;5059353;28;20094;-74
2023/03/12 03:35:58;;;;;;;12.13;3.63;;;0.70;99.90;;;;;;5060493;28;20044;-74
2023/03/12 03:38:25;;;;;;;10.95;3.70;;;0.00;99.90;;;;;;5091745;28;20290;-74
2023/03/12 03:40:52;;;;;;;15.48;4.05;;;0.00;99.90;;;;;;5055701;28;20052;-75
2023/03/12 03:43:18;;;;;;;8.77;3.60;;;0.10;99.90;;;;;;5061395;28;20068;-74
2023/03/12 03:45:43;;;;;;;12.05;3.70;;;0.10;99.90;;;;;;5060808;28;20053;-75
2023/03/12 03:48:10;;;;;;;11.00;4.53;;;0.10;99.90;;;;;;5059512;28;20119;-75
2023/03/12 03:50:40;;;;;;;11.27;4.20;;;0.10;99.90;;;;;;5061032;28;20040;-75
2023/03/12 03:53:07;;;;;;;10.35;3.47;;;0.10;99.90;;;;;;5062347;28;20101;-75
2023/03/12 03:55:38;;;;;;;9.32;4.38;;;0.10;99.90;;;;;;5062644;28;20139;-75
2023/03/12 03:58:05;;;;;;;7.95;3.90;;;0.10;99.90;;;;;;5064921;28;20723;-74
2023/03/12 04:00:30;;;;;;;10.05;3.80;;;0.10;99.90;;;;;;5065611;28;20086;-75
2023/03/12 04:02:56;;;;;;;9.50;4.65;;;0.10;99.90;;;;;;5063434;28;20040;-74
2023/03/12 04:05:22;;;;;;;7.57;3.60;;;0.20;99.90;;;;;;5065758;28;20083;-74
2023/03/12 04:07:48;;;;;;;10.77;3.72;;;0.20;99.90;;;;;;5062390;28;20139;-75
2023/03/12 04:10:13;;;;;;;8.98;3.75;;;0.20;99.90;;;;;;5057508;28;20481;-74
2023/03/12 04:12:39;;;;;;;11.88;4.13;;;0.20;99.90;;;;;;5064415;28;20421;-75
2023/03/12 04:15:05;;;;;;;7.25;3.92;;;0.20;99.90;;;;;;5064128;28;20424;-74
2023/03/12 04:17:34;;;;;;;12.88;4.18;;;0.20;99.90;;;;;;5063378;28;20036;-74
2023/03/12 04:20:00;;;;;;;13.82;4.32;;;0.50;99.90;;;;;;5063483;28;20043;-74
2023/03/12 04:22:26;;;;;;;10.43;3.90;;;0.70;99.90;;;;;;5046950;28;20921;-74
2023/03/12 04:24:51;;;;;;;9.75;3.83;;;0.40;99.90;;;;;;5062267;28;20040;-74
2023/03/12 04:27:17;;;;;;;10.63;4.28;;;0.20;99.90;;;;;;5063683;28;20089;-74
2023/03/12 04:29:44;;;;;;;11.07;4.30;;;0.20;99.90;;;;;;5062646;28;20135;-74
2023/03/12 04:32:09;;;;;;;12.63;3.92;;;0.20;99.90;;;;;;5045592;28;20540;-74
2023/03/12 04:34:35;;;;;;;11.15;3.70;;;0.30;99.90;;;;;;5063539;28;20040;-74
2023/03/12 04:37:01;;;;;;;12.32;3.78;;;0.20;99.90;;;;;;5062960;28;20049;-75
2023/03/12 04:39:27;;;;;;;7.80;3.40;;;0.20;99.90;;;;;;5043292;28;20041;-74
2023/03/12 04:41:53;;;;;;;7.82;3.40;;;0.30;99.90;;;;;;5078495;28;20037;-75
2023/03/12 04:44:18;;;;;;;10.52;4.05;;;0.40;99.90;;;;;;5064520;28;20048;-74
2023/03/12 04:46:44;;;;;;;11.63;3.63;;;1.30;99.90;;;;;;5061551;28;20598;-74
2023/03/12 04:49:10;;;;;;;14.50;3.90;;;0.30;99.90;;;;;;5062584;28;20079;-75
2023/03/12 04:51:39;;;;;;;9.93;3.97;;;0.30;99.90;;;;;;5062710;28;20041;-75
2023/03/12 04:54:04;;;;;;;8.70;3.92;;;0.30;99.90;;;;;;5064595;28;20562;-75
2023/03/12 04:56:30;;;;;;;12.45;4.00;;;0.60;99.90;;;;;;5064391;28;20045;-75
2023/03/12 04:58:56;;;;;;;8.63;3.92;;;0.30;99.90;;;;;;5046036;28;20396;-75
2023/03/12 05:01:25;;;;;;;9.40;3.33;;;0.40;99.90;;;;;;5062997;28;20075;-75
2023/03/12 05:03:51;;;;;;;10.75;4.25;;;0.40;99.90;;;;;;5064598;28;20519;-75
2023/03/12 05:06:17;;;;;;;9.38;4.10;;;0.40;99.90;;;;;;5060086;28;20037;-75
2023/03/12 05:08:43;;;;;;;10.43;3.90;;;0.40;99.90;;;;;;5063658;28;20059;-75
2023/03/12 05:11:09;;;;;;;12.43;3.88;;;0.40;99.90;;;;;;5061115;28;20059;-75
2023/03/12 05:13:35;;;;;;;10.38;3.90;;;0.40;99.90;;;;;;5063926;28;20048;-75
2023/03/12 05:16:00;;;;;;;11.15;3.90;;;0.40;99.90;;;;;;5060925;28;20041;-75
2023/03/12 05:18:26;;;;;;;10.77;4.35;;;0.50;99.90;;;;;;5060366;28;20097;-75
2023/03/12 05:21:07;;;;;;;8.80;4.10;;;0.50;99.90;;;;;;5062909;28;20659;-75
2023/03/12 05:23:33;;;;;;;11.40;3.90;;;0.50;99.90;;;;;;5062880;28;20048;-75
2023/03/12 05:25:59;;;;;;;9.82;3.63;;;0.50;99.90;;;;;;5058809;28;20037;-74
2023/03/12 05:28:27;;;;;;;12.40;3.67;;;0.90;99.90;;;;;;5064284;28;20055;-76
2023/03/12 05:31:00;;;;;;;12.35;4.07;;;0.50;99.90;;;;;;5059342;28;20218;-76
2023/03/12 05:33:27;;;;;;;9.00;3.78;;;0.50;99.90;;;;;;5060003;28;20063;-76
2023/03/12 05:35:53;;;;;;;10.88;3.90;;;0.60;99.90;;;;;;5060883;28;20055;-76
2023/03/12 05:38:19;;;;;;;10.93;4.07;;;0.60;99.90;;;;;;5046362;28;20670;-76
2023/03/12 05:40:53;;;;;;;12.32;3.80;;;0.60;99.90;;;;;;5061081;28;20048;-76
2023/03/12 05:43:18;;;;;;;9.43;4.18;;;0.60;99.90;;;;;;5062056;28;20405;-77
2023/03/12 05:45:44;;;;;;;12.32;3.75;;;0.60;99.90;;;;;;5060945;28;20028;-75
2023/03/12 05:48:10;;;;;;;8.32;3.72;;;0.60;99.90;;;;;;5060784;28;20101;-76
2023/03/12 05:50:35;;;;;;;14.27;4.10;;;0.60;99.90;;;;;;5045496;28;20094;-77
2023/03/12 05:53:01;;;;;;;13.73;4.68;;;0.60;99.90;;;;;;5061348;28;20053;-77
2023/03/12 05:55:27;;;;;;;9.38;4.45;;;1.60;99.90;;;;;;5059392;28;22658;-77
2023/03/12 05:57:53;;;;;;;12.23;4.28;;;1.50;99.90;;;;;;5062271;28;20032;-76
2023/03/12 06:00:20;;;;;;;10.30;3.97;;;0.60;99.90;;;;;;5044576;28;20465;-76
2023/03/12 06:02:45;;;;;;;13.25;4.20;;;0.70;99.90;;;;;;5059531;28;20123;-76
2023/03/12 06:05:12;;;;;;;11.98;4.55;;;0.70;99.90;;;;;;5057421;28;20202;-77
2023/03/12 06:07:38;;;;;;;14.48;4.72;;;0.70;99.90;;;;;;5061794;28;20044;-77
2023/03/12 06:10:04;;;;;;;8.77;4.03;;;0.80;99.90;;;;;;5059449;28;20056;-76
2023/03/12 06:12:30;;;;;;;9.63;3.72;;;0.70;99.90;;;;;;5061438;28;20055;-76
2023/03/12 06:14:57;;;;;;;11.00;4.18;;;0.70;99.90;;;;;;5056520;28;20044;-76
2023/03/12 06:17:23;;;;;;;12.55;4.05;;;0.70;99.90;;;;;;5062817;28;20528;-76
2023/03/12 06:19:52;;;;;;;9.63;4.53;;;0.70;99.90;;;;;;5040097;28;20040;-76
2023/03/12 06:22:18;;;;;;;9.23;4.20;;;0.70;99.90;;;;;;5060995;28;20675;-76
2023/03/12 06:24:46;;;;;;;12.35;4.40;;;0.70;99.90;;;;;;5061417;28;20051;-76
2023/03/12 06:27:15;;;;;;;10.65;4.15;;;0.80;99.90;;;;;;5062413;28;20051;-76
2023/03/12 06:29:41;;;;;;;8.80;3.95;;;0.80;99.90;;;;;;5057115;28;20143;-76
2023/03/12 06:32:07;;;;;;;10.80;4.35;;;0.80;99.90;;;;;;5057868;28;20417;-76
2023/03/12 06:34:34;;;;;;;12.18;4.50;;;0.80;99.90;;;;;;5060896;28;20033;-76
2023/03/12 06:36:59;;;;;;;8.43;4.05;;;1.10;99.90;;;;;;5057646;28;20046;-76
2023/03/12 06:39:26;;;;;;;11.80;4.25;;;0.90;99.90;;;;;;5059963;28;20032;-75
2023/03/12 06:41:51;;;;;;;12.98;4.57;;;0.90;99.90;;;;;;5042041;28;20044;-76
2023/03/12 06:44:17;;;;;;;12.93;4.13;;;0.80;99.90;;;;;;5061306;28;21151;-75
2023/03/12 06:46:43;;;;;;;14.55;4.15;;;2.00;99.90;;;;;;5040429;28;20057;-75
2023/03/12 06:49:09;;;;;;;15.10;4.55;;;0.80;99.90;;;;;;5060505;28;20047;-75
2023/03/12 06:51:35;;;;;;;13.23;4.75;;;0.90;99.90;;;;;;5062611;28;20037;-75
2023/03/12 06:54:02;;;;;;;15.68;4.80;;;0.90;99.90;;;;;;5060748;28;20099;-75
2023/03/12 06:56:28;;;;;;;12.13;4.80;;;1.70;99.90;;;;;;5055477;28;20106;-75
2023/03/12 06:58:55;;;;;;;12.50;4.65;;;0.90;99.90;;;;;;5047147;28;20044;-74
2023/03/12 07:01:21;;;;;;;10.93;4.82;;;0.90;99.90;;;;;;5057044;28;20555;-75
2023/03/12 07:03:47;;;;;;;13.43;5.07;;;0.90;99.90;;;;;;5054630;28;20094;-74
2023/03/12 07:06:15;;;;;;;14.85;6.00;;;0.90;99.90;;;;;;5082783;28;20045;-75
2023/03/12 07:08:41;;;;;;;13.13;5.20;;;1.00;99.90;;;;;;5041444;28;20058;-75
2023/03/12 07:11:08;;;;;;;15.38;5.40;;;0.90;99.90;;;;;;5059370;28;20565;-75
2023/03/12 07:13:34;;;;;;;14.23;5.38;;;1.00;99.90;;;;;;5047819;28;20131;-74
2023/03/12 07:16:00;;;;;;;9.70;5.20;;;1.00;99.90;;;;;;5057608;28;20182;-74
2023/03/12 07:18:26;;;;;;;16.30;5.60;;;1.10;99.90;;;;;;5052475;28;20692;-75
2023/03/12 07:20:52;;;;;;;14.10;5.30;;;0.90;99.90;;;;;;5058146;28;20055;-75
2023/03/12 07:23:17;;;;;;;12.73;5.60;;;0.90;99.90;;;;;;5044332;28;20072;-75
2023/03/12 07:25:44;;;;;;;13.38;5.88;;;0.90;99.90;;;;;;5053986;28;20033;-75
2023/03/12 07:28:11;;;;;;;14.00;6.35;;;0.90;99.90;;;;;;5055509;28;20076;-75
2023/03/12 07:30:40;;;;;;;13.60;6.55;;;0.90;99.90;;;;;;5057102;28;20053;-75
2023/03/12 07:33:11;;;;;;;16.13;7.20;;;0.90;99.90;;;;;;5080212;28;20044;-75
2023/03/12 07:35:39;;;;;;;15.55;6.68;;;0.80;99.90;;;;;;5088553;28;20716;-75
2023/03/12 07:38:09;;;;;;;15.15;7.15;;;1.30;99.90;;;;;;5050804;28;20501;-75
2023/03/12 07:40:35;;;;;;;15.85;6.97;;;0.80;99.90;;;;;;5060675;28;20036;-75
2023/03/12 07:43:03;;;;;;;16.98;6.85;;;1.50;99.90;;;;;;5054552;28;20064;-74
2023/03/12 07:45:28;;;;;;;14.68;6.68;;;0.70;99.90;;;;;;5057372;28;20044;-74
2023/03/12 07:47:54;;;;;;;15.00;6.97;;;0.70;99.90;;;;;;5055172;28;20044;-74
2023/03/12 07:50:20;;;;;;;15.77;7.38;;;0.70;99.90;;;;;;5052445;28;20790;-74
2023/03/12 07:52:46;;;;;;;23.83;7.93;;;0.70;99.90;;;;;;5051818;28;20048;-74
2023/03/12 07:55:12;;;;;;;17.25;7.18;;;0.70;99.90;;;;;;5056796;28;20041;-74
2023/03/12 07:57:38;;;;;;;18.25;8.00;;;0.70;99.90;;;;;;5060286;28;20591;-74
2023/03/12 08:00:09;;;;;;;16.25;8.25;;;0.70;99.90;;;;;;5041926;28;20052;-74
2023/03/12 08:02:35;;;;;;;14.85;7.25;;;0.70;99.90;;;;;;5056217;28;20048;-75
2023/03/12 08:05:01;;;;;;;18.45;8.73;;;0.70;99.90;;;;;;5058453;28;20052;-74
2023/03/12 08:07:31;;;;;;;15.40;9.00;;;0.70;99.90;;;;;;5062017;28;20848;-74
2023/03/12 08:09:58;;;;;;;22.17;9.07;;;0.70;99.90;;;;;;5057222;28;21582;-74
2023/03/12 08:12:24;;;;;;;18.60;8.90;;;0.70;99.90;;;;;;5058148;28;20582;-73
2023/03/12 08:14:53;;;;;;;19.45;8.93;;;0.70;99.90;;;;;;5055235;28;20131;-74
2023/03/12 08:17:19;;;;;;;18.88;9.05;;;0.70;99.90;;;;;;5059613;28;20402;-74
2023/03/12 08:19:45;;;;;;;16.83;9.32;;;1.20;99.90;;;;;;5037152;28;20049;-74
2023/03/12 08:22:11;;;;;;;15.80;9.80;;;0.70;99.90;;;;;;5055978;28;20083;-73
2023/03/12 08:24:37;;;;;;;14.63;8.60;;;0.70;99.90;;;;;;5056805;28;20068;-73
2023/03/12 08:27:02;;;;;;;14.77;9.10;;;0.70;99.90;;;;;;5057993;28;20037;-74
2023/03/12 08:29:28;;;;;;;20.63;9.35;;;0.70;99.90;;;;;;5052620;28;20173;-73
2023/03/12 08:31:54;;;;;;;18.27;9.95;;;0.90;99.90;;;;;;5058316;28;20044;-73
2023/03/12 08:34:20;;;;;;;18.90;9.05;;;0.90;99.90;;;;;;5037177;28;20094;-74
2023/03/12 08:36:46;;;;;;;21.23;8.82;;;1.00;99.90;;;;;;5056290;28;20040;-73
2023/03/12 08:39:11;;;;;;;20.35;9.93;;;0.80;99.90;;;;;;5056901;28;20044;-73
2023/03/12 08:41:37;;;;;;;15.40;9.02;;;0.80;99.90;;;;;;5057598;28;20132;-73
2023/03/12 08:44:03;;;;;;;17.23;8.88;;;0.90;99.90;;;;;;5057893;28;20036;-72
2023/03/12 08:46:29;;;;;;;17.30;9.48;;;0.80;99.90;;;;;;5056878;28;20071;-73
2023/03/12 08:48:55;;;;;;;15.23;9.20;;;0.90;99.90;;;;;;5052714;28;20033;-72
2023/03/12 08:51:20;;;;;;;16.98;9.70;;;0.90;99.90;;;;;;5053583;28;20129;-73
2023/03/12 08:53:46;;;;;;;22.35;10.05;;;1.20;99.90;;;;;;5054574;28;20822;-73
2023/03/12 08:56:12;;;;;;;17.13;9.13;;;0.90;99.90;;;;;;5063654;28;20482;-73
2023/03/12 08:58:38;;;;;;;16.88;8.75;;;1.80;99.90;;;;;;5055560;28;20052;-75
2023/03/12 09:01:12;;;;;;;16.23;8.75;;;0.90;99.90;;;;;;5050652;28;20091;-74
2023/03/12 09:03:39;;;;;;;15.85;8.88;;;0.90;99.90;;;;;;5052240;28;20052;-75
2023/03/12 09:06:15;;;;;;;14.77;8.40;;;1.00;99.90;;;;;;5056040;28;20089;-74
2023/03/12 09:08:42;;;;;;;21.67;9.38;;;1.00;99.90;;;;;;5052049;28;20598;-75
2023/03/12 09:11:10;;;;;;;17.27;8.65;;;1.30;99.90;;;;;;5031620;28;20081;-75
2023/03/12 09:13:37;;;;;;;19.73;9.80;;;1.00;99.90;;;;;;5040676;28;20528;-75
2023/03/12 09:16:04;;;;;;;16.05;9.05;;;1.00;99.90;;;;;;5056753;28;20041;-74
2023/03/12 09:18:30;;;;;;;13.88;8.25;;;1.00;99.90;;;;;;5054039;28;20049;-74
2023/03/12 09:20:56;;;;;;;18.17;9.05;;;1.20;99.90;;;;;;5053364;28;20036;-74
2023/03/12 09:23:23;;;;;;;15.32;8.98;;;1.00;99.90;;;;;;5057563;28;20619;-76
2023/03/12 09:25:52;;;;;;;17.75;8.82;;;1.00;99.90;;;;;;5057921;28;20356;-75
2023/03/12 09:28:18;;;;;;;22.23;9.50;;;1.50;99.90;;;;;;5052837;28;20587;-75
2023/03/12 09:30:44;;;;;;;12.40;8.93;;;1.00;99.90;;;;;;5052782;28;20123;-75
2023/03/12 09:33:10;;;;;;;15.85;9.00;;;1.10;99.90;;;;;;5053112;28;20048;-75
2023/03/12 09:35:37;;;;;;;14.88;9.02;;;1.10;99.90;;;;;;5056655;28;20055;-74
2023/03/12 09:38:03;;;;;;;13.95;9.10;;;1.10;99.90;;;;;;5036265;28;20072;-76
2023/03/12 09:40:32;;;;;;;17.10;8.73;;;1.40;99.90;;;;;;5054860;28;20145;-76
2023/03/12 09:43:02;;;;;;;14.00;8.27;;;1.20;99.90;;;;;;5060412;28;20044;-74
2023/03/12 09:45:34;;;;;;;12.68;8.43;;;1.10;99.90;;;;;;5055671;28;20139;-74
2023/03/12 09:48:06;;;;;;;13.40;9.00;;;2.00;99.90;;;;;;5056759;28;20549;-74
2023/03/12 09:50:39;;;;;;;14.05;8.95;;;1.20;99.90;;;;;;5054455;28;20052;-75
2023/03/12 09:53:16;;;;;;;13.32;8.70;;;1.20;99.90;;;;;;5051133;28;20044;-75
2023/03/12 09:55:45;;;;;;;14.95;8.75;;;1.20;99.90;;;;;;5038377;28;20048;-75
2023/03/12 09:58:23;;;;;;;15.20;9.32;;;2.00;99.90;;;;;;5054034;28;20044;-75
2023/03/12 10:00:53;;;;;;;19.90;8.98;;;1.20;99.90;;;;;;5055495;28;20044;-77
2023/03/12 10:03:38;;;;;;;13.25;8.85;;;1.20;99.90;;;;;;5036877;28;20417;-76
2023/03/12 10:06:11;;;;;;;16.92;9.02;;;1.20;99.90;;;;;;5053759;28;20417;-76
2023/03/12 10:09:09;;;;;;;13.65;9.55;;;1.30;99.90;;;;;;5058668;28;20457;-76
2023/03/12 10:11:56;;;;;;;16.15;8.88;;;1.30;99.90;;;;;;5053865;28;20526;-76
2023/03/12 10:14:44;;;;;;;17.33;8.30;;;1.30;99.90;;;;;;5056231;28;20056;-74
2023/03/12 10:17:21;;;;;;;16.25;9.20;;;1.40;99.90;;;;;;5058427;28;20429;-74
2023/03/12 10:20:32;;;;;;;15.75;8.80;;;1.40;99.90;;;;;;5037566;28;20044;-75
2023/03/12 10:23:07;;;;;;;17.00;9.93;;;1.40;99.90;;;;;;5053952;28;20098;-74
2023/03/12 10:26:06;;;;;;;17.05;8.88;;;1.50;99.90;;;;;;5056009;28;20131;-75
2023/03/12 10:28:38;;;;;;;18.40;9.98;;;1.50;99.90;;;;;;5029742;28;20052;-75
2023/03/12 10:31:20;;;;;;;12.90;9.57;;;2.00;99.90;;;;;;5052950;28;20110;-75
2023/03/12 10:33:57;;;;;;;16.30;9.60;;;2.40;99.90;;;;;;5053540;28;20086;-76
2023/03/12 10:36:32;;;;;;;14.00;9.50;;;1.60;99.90;;;;;;5050348;28;20040;-75
2023/03/12 10:38:58;;;;;;;13.82;8.90;;;1.60;99.90;;;;;;5055182;28;20045;-74
2023/03/12 10:41:28;;;;;;;15.35;9.18;;;2.00;99.90;;;;;;5054984;28;20047;-75
2023/03/12 10:43:57;;;;;;;17.48;8.77;;;1.60;99.90;;;;;;5051915;28;20135;-75
2023/03/12 10:47:00;;;;;;;14.80;9.25;;;1.70;99.90;;;;;;5030488;28;20169;-76
2023/03/12 10:49:29;;;;;;;16.48;9.07;;;1.70;99.90;;;;;;5047693;28;20151;-75
2023/03/12 10:52:04;;;;;;;15.60;9.23;;;1.70;99.90;;;;;;5036010;28;20465;-75
2023/03/12 10:54:39;;;;;;;14.02;9.35;;;1.80;99.90;;;;;;5055827;28;20499;-76
2023/03/12 10:57:07;;;;;;;17.92;9.77;;;1.80;99.90;;;;;;5047461;28;20074;-77
2023/03/12 10:59:35;;;;;;;20.65;10.25;;;1.90;99.90;;;;;;5056465;28;20505;-76
2023/03/12 11:02:02;;;;;;;15.27;10.18;;;1.90;99.90;;;;;;5032947;28;20056;-76
2023/03/12 11:04:31;;;;;;;15.98;10.32;;;1.90;99.90;;;;;;5050179;28;20052;-76
2023/03/12 11:07:17;;;;;;;18.83;10.73;;;2.00;99.90;;;;;;5053238;28;20076;-77
2023/03/12 11:09:43;;;;;;;16.52;10.10;;;1.90;99.90;;;;;;5081455;28;20175;-76
2023/03/12 11:12:33;;;;;;;19.67;10.85;;;2.00;99.90;;;;;;5036356;28;20574;-76
2023/03/12 11:15:17;;;;;;;18.83;11.07;;;2.10;99.90;;;;;;5051810;28;20064;-76
2023/03/12 11:17:43;;;;;;;17.83;11.25;;;2.10;99.90;;;;;;5048914;28;20086;-76
2023/03/12 11:20:21;;;;;;;19.65;11.15;;;2.90;99.90;;;;;;5034909;28;20048;-76
2023/03/12 11:22:48;;;;;;;18.45;11.98;;;2.20;99.90;;;;;;5049975;28;20102;-76
2023/03/12 11:25:34;;;;;;;22.02;11.23;;;2.20;99.90;;;;;;5056260;28;20048;-77
2023/03/12 11:28:02;;;;;;;21.27;11.48;;;2.30;99.90;;;;;;5059439;28;20139;-76
2023/03/12 11:30:56;;;;;;;19.70;11.38;;;2.30;99.90;;;;;;5056484;28;20039;-76
2023/03/12 11:33:22;;;;;;;17.55;11.07;;;2.40;99.90;;;;;;5045793;28;20156;-76
2023/03/12 11:36:24;;;;;;;22.33;13.13;;;2.40;99.90;;;;;;5040052;28;20044;-77
2023/03/12 11:39:13;;;;;;;26.08;13.10;;;2.50;99.90;;;;;;5044635;28;20044;-77
2023/03/12 11:41:48;;;;;;;22.60;13.55;;;2.60;99.90;;;;;;5040461;28;20053;-77
2023/03/12 11:44:22;;;;;;;21.52;13.27;;;2.70;99.90;;;;;;5040263;28;20267;-77
2023/03/12 11:47:14;;;;;;;21.23;13.18;;;2.70;99.90;;;;;;5044338;28;20135;-78
2023/03/12 11:50:00;;;;;;;22.98;12.98;;;2.80;99.90;;;;;;5042328;28;20059;-77
2023/03/12 11:52:35;;;;;;;23.00;13.02;;;2.90;99.90;;;;;;5040413;28;20048;-77
2023/03/12 11:55:16;;;;;;;23.33;12.48;;;3.00;99.90;;;;;;5038684;28;20052;-78
2023/03/12 11:57:44;;;;;;;25.88;13.68;;;3.10;99.90;;;;;;5040188;28;20725;-77
2023/03/12 12:00:19;;;;;;;26.00;13.93;;;3.20;99.90;;;;;;5041711;28;20150;-77
2023/03/12 12:03:19;;;;;;;24.30;12.50;;;3.30;99.90;;;;;;5040151;28;20059;-78
2023/03/12 12:06:07;;;;;;;21.92;12.88;;;3.40;99.90;;;;;;5043915;28;20055;-78
2023/03/12 12:08:51;;;;;;;25.42;14.15;;;3.50;99.90;;;;;;5042126;28;20628;-78
2023/03/12 12:11:17;;;;;;;22.60;12.82;;;3.60;99.90;;;;;;5043200;28;20041;-78
2023/03/12 12:14:10;;;;;;;23.00;13.60;;;4.30;99.90;;;;;;5043920;28;20041;-78
2023/03/12 12:16:42;;;;;;;21.08;12.15;;;3.80;99.90;;;;;;5032757;28;20052;-78
2023/03/12 12:19:07;;;;;;;21.83;13.13;;;3.90;99.90;;;;;;5029799;28;20122;-77
2023/03/12 12:21:59;;;;;;;23.10;12.95;;;4.00;99.90;;;;;;5031031;28;20053;-78
2023/03/12 12:24:40;;;;;;;25.10;13.15;;;4.10;99.90;;;;;;5046313;28;21156;-76
2023/03/12 12:27:05;;;;;;;23.42;13.45;;;4.10;99.90;;;;;;5064603;28;20045;-77
2023/03/12 12:29:54;;;;;;;27.08;13.68;;;4.20;99.90;;;;;;5045388;28;20559;-76
2023/03/12 12:32:47;;;;;;;26.27;13.82;;;4.90;99.90;;;;;;5043516;28;20032;-78
2023/03/12 12:35:32;;;;;;;21.10;12.80;;;4.30;99.90;;;;;;5073136;28;20048;-78
2023/03/12 12:38:07;;;;;;;23.90;13.85;;;4.40;99.90;;;;;;5042732;28;20048;-78
2023/03/12 12:41:11;;;;;;;26.25;14.27;;;4.50;99.90;;;;;;5042419;28;20052;-78
2023/03/12 12:43:52;;;;;;;31.02;13.98;;;4.70;99.90;;;;;;5042098;28;20049;-78
2023/03/12 12:46:21;;;;;;;27.80;13.52;;;4.70;99.90;;;;;;5040809;28;20071;-80
2023/03/12 12:48:54;;;;;;;33.50;14.23;;;4.90;99.90;;;;;;5025720;28;20037;-79
2023/03/12 12:51:25;;;;;;;37.10;15.43;;;5.00;99.90;;;;;;5041841;28;20040;-79
2023/03/12 12:54:15;;;;;;;27.48;14.20;;;5.10;99.90;;;;;;5048753;28;20055;-78
2023/03/12 12:56:56;;;;;;;29.23;14.93;;;5.20;99.90;;;;;;5042315;28;20084;-80
2023/03/12 12:59:33;;;;;;;34.50;15.07;;;5.30;99.90;;;;;;5040951;28;20052;-80